Hlavní strana
METAR-TAF:

METAR-TAF

Letiště :

Gullfaks, Norsko

zeměpisná šířka: 61-02N, zeměpisná délka: 002-02E, výška: 10 m

Aktuální stav počasí

Zpráva byla vytvořena před 1 hodinou a 7 minutami, v 09:50 UTC
Západojihozápadní vítr 4 kt
Teplota 5°C
Vlhkost vzduchu 81%
Tlak 986 hPa
Viditelnost 10 km a více
Polojasno ve výšce 1500 ft
Zataženo ve výšce 3000 ft
slabé dešťové přeháňky

METAR: ENGC 290950Z 24004KT 9999 -SHRA SCT015 OVC030 05/02 Q0986 W06/S4

Čas: 11:57 (10:57 UTC)

Předpověď počasí

Předpověď platná od 29 v 09 UTC do 30 v 09 UTC
vítr z různých směrů 8 kt
Viditelnost 10 km a více
Skoro jasno ve výšce 1500 ft, Vertikální cumulus.
Polojasno ve výšce 3000 ft
slabé dešťové přeháňky
Dočasný
od 29 v 09 UTC do 30 v 09 UTC
Oblačno až skoro zataženo ve výšce 1500 ft, Cumulonimbus.
dešťové přeháňky
Změna
od 30 v 04 UTC do 30 v 07 UTC
Jižní vítr 15 kt

TAF: ENGC 2909/3009 VRB08KT 9999 -SHRA FEW015TCU SCT030 TEMPO 2909/3009 SHRA BKN015CB BECMG 3004/3007 18015KT

Stav a předpovědi počasí z více než 4 000 letišť (zprávy METAR a TAF).

Červené a žluté tečky na mapě představují dostupné meteorologické stanice.

Když kurzor umístíte na tečku, zobrazí se název stanice.

Pak kliknutím zobrazíte stav a předpověď počasí.

Chcete-li změnit mapu, kliknutím na zelené tlačítko se znaménkem +mapu přiblížíte, kliknutím na zelené tlačítko se znaménkem – mapu oddálíte a kliknutím na zelené šipky přejdete na sousední mapy.


METAR-TAF: